createdAt,value
2022-09-15T00:02:03.373Z,15.47
2022-09-15T00:04:32.938Z,15.39
2022-09-15T00:07:02.574Z,15.31
2022-09-15T00:09:31.899Z,15.24
2022-09-15T00:12:01.371Z,15.22
2022-09-15T00:14:30.689Z,15.15
2022-09-15T00:17:00.046Z,15.17
2022-09-15T00:19:29.415Z,15.14
2022-09-15T00:21:58.745Z,15.17
2022-09-15T00:24:28.163Z,15.02
2022-09-15T00:26:57.518Z,15.17
2022-09-15T00:29:27.302Z,15.15
2022-09-15T00:31:56.580Z,15.10
2022-09-15T00:34:25.943Z,14.94
2022-09-15T00:36:55.218Z,14.94
2022-09-15T00:39:24.506Z,14.92
2022-09-15T00:41:53.924Z,14.89
2022-09-15T00:44:23.205Z,14.87
2022-09-15T00:47:15.623Z,15.00
2022-09-15T00:49:46.926Z,15.11
2022-09-15T00:52:22.310Z,15.16
2022-09-15T00:55:03.202Z,15.23
2022-09-15T00:57:47.454Z,15.24
2022-09-15T01:00:21.097Z,15.28
2022-09-15T01:02:52.074Z,15.39
2022-09-15T01:05:24.490Z,15.45
2022-09-15T01:08:17.599Z,15.50
2022-09-15T01:10:46.991Z,15.54
2022-09-15T01:13:17.948Z,15.57
2022-09-15T01:16:01.697Z,15.57
2022-09-15T01:18:48.572Z,15.62
2022-09-15T01:21:22.795Z,15.61
2022-09-15T01:24:37.404Z,15.63
2022-09-15T01:27:38.101Z,15.67
2022-09-15T01:30:16.296Z,15.75
2022-09-15T01:33:05.969Z,15.78
2022-09-15T01:36:12.676Z,15.80
2022-09-15T01:38:42.255Z,15.81
2022-09-15T01:41:19.840Z,15.83
2022-09-15T01:44:05.341Z,15.86
2022-09-15T01:46:42.963Z,15.90
2022-09-15T01:49:16.156Z,15.90
2022-09-15T01:51:48.878Z,15.93
2022-09-15T01:54:22.779Z,15.96
2022-09-15T01:56:52.151Z,15.98
2022-09-15T01:59:21.478Z,16.00
2022-09-15T02:02:17.349Z,15.88
2022-09-15T02:04:53.348Z,15.82
2022-09-15T02:07:42.824Z,15.80
2022-09-15T02:10:22.592Z,15.80
2022-09-15T02:13:45.315Z,15.88
2022-09-15T02:16:20.010Z,15.92
2022-09-15T02:19:14.715Z,16.02
2022-09-15T02:21:57.667Z,16.10
2022-09-15T02:24:37.651Z,16.11
2022-09-15T02:27:13.220Z,16.17
2022-09-15T02:29:44.689Z,16.17
2022-09-15T02:32:19.755Z,16.14
2022-09-15T02:34:52.692Z,16.15
2022-09-15T02:37:26.399Z,16.22
2022-09-15T02:40:00.776Z,16.25
2022-09-15T02:42:32.699Z,16.25
2022-09-15T02:45:03.092Z,16.22
2022-09-15T02:47:32.439Z,16.28
2022-09-15T02:50:01.963Z,16.29
2022-09-15T02:52:31.250Z,16.25
2022-09-15T02:55:00.996Z,16.25
2022-09-15T02:57:30.272Z,16.26
2022-09-15T03:00:12.048Z,16.25
2022-09-15T03:02:42.806Z,16.21
2022-09-15T03:05:12.763Z,16.14
2022-09-15T03:07:42.514Z,16.08
2022-09-15T03:10:14.685Z,16.05
2022-09-15T03:12:46.811Z,16.02
2022-09-15T03:15:18.879Z,16.03
2022-09-15T03:17:50.070Z,16.06
2022-09-15T03:20:23.087Z,16.07
2022-09-15T03:22:53.029Z,16.04
2022-09-15T03:25:23.718Z,16.01
2022-09-15T03:27:53.250Z,15.95
2022-09-15T03:30:22.645Z,15.91
2022-09-15T03:32:52.046Z,15.87
2022-09-15T03:35:21.504Z,15.81
2022-09-15T03:37:50.808Z,15.81
2022-09-15T03:40:20.266Z,15.81
2022-09-15T03:42:49.611Z,15.82
2022-09-15T03:45:19.060Z,15.78
2022-09-15T03:47:48.431Z,15.53
2022-09-15T03:50:17.768Z,15.60
2022-09-15T03:52:47.018Z,15.60
2022-09-15T03:55:16.348Z,15.60
2022-09-15T03:57:45.593Z,15.59
2022-09-15T04:00:15.543Z,15.57
2022-09-15T04:02:44.818Z,15.59
2022-09-15T04:05:17.152Z,15.56
2022-09-15T04:07:46.327Z,15.57
2022-09-15T04:10:15.920Z,15.56
2022-09-15T04:12:45.539Z,15.53
2022-09-15T04:15:14.899Z,15.55
2022-09-15T04:17:46.675Z,15.54
2022-09-15T04:20:17.227Z,15.51
2022-09-15T04:22:47.735Z,15.49
2022-09-15T04:25:17.154Z,15.47
2022-09-15T04:27:46.435Z,15.45
2022-09-15T04:30:15.838Z,15.47
2022-09-15T04:32:45.107Z,15.48
2022-09-15T04:35:14.837Z,15.52
2022-09-15T04:37:47.550Z,15.54
2022-09-15T04:40:16.943Z,15.54
2022-09-15T04:42:46.257Z,15.60
2022-09-15T04:45:15.510Z,15.73
2022-09-15T04:47:45.159Z,15.79
2022-09-15T04:50:14.520Z,15.87
2022-09-15T04:52:44.013Z,15.91
2022-09-15T04:55:13.571Z,15.90
2022-09-15T04:57:43.058Z,15.95
2022-09-15T05:00:13.092Z,15.96
2022-09-15T05:02:42.380Z,15.97
2022-09-15T05:05:11.847Z,16.00
2022-09-15T05:07:41.102Z,15.97
2022-09-15T05:10:10.816Z,15.86
2022-09-15T05:12:40.090Z,15.81
2022-09-15T05:15:12.384Z,15.78
2022-09-15T05:17:44.031Z,15.78
2022-09-15T05:20:13.339Z,15.90
2022-09-15T05:22:42.807Z,15.95
2022-09-15T05:25:13.175Z,16.06
2022-09-15T05:27:42.460Z,16.06
2022-09-15T05:33:01.628Z,16.05
2022-09-15T05:35:30.937Z,16.06
2022-09-15T05:38:00.181Z,16.02
2022-09-15T05:40:29.609Z,16.02
2022-09-15T05:42:58.913Z,16.01
2022-09-15T05:45:28.183Z,16.06
2022-09-15T05:47:57.544Z,16.16
2022-09-15T05:50:27.065Z,16.21
2022-09-15T05:52:56.348Z,16.22
2022-09-15T05:55:25.653Z,16.16
2022-09-15T05:57:54.925Z,16.23
2022-09-15T06:00:24.721Z,16.28
2022-09-15T06:02:54.177Z,16.34
2022-09-15T06:05:23.547Z,16.37
2022-09-15T06:07:55.577Z,16.31
2022-09-15T06:10:27.003Z,16.41
2022-09-15T06:12:56.895Z,16.43
2022-09-15T06:15:26.911Z,16.49
2022-09-15T06:17:56.183Z,16.56
2022-09-15T06:20:25.911Z,16.60
2022-09-15T06:22:58.654Z,16.69
2022-09-15T06:25:27.894Z,16.77
2022-09-15T06:27:57.215Z,16.86
2022-09-15T06:30:26.656Z,16.95
2022-09-15T06:32:55.986Z,16.96
2022-09-15T06:35:25.239Z,17.06
2022-09-15T06:37:54.536Z,17.08
2022-09-15T06:40:24.537Z,17.11
2022-09-15T06:42:58.634Z,17.15
2022-09-15T06:45:27.925Z,17.20
2022-09-15T06:48:20.290Z,17.27
2022-09-15T06:50:46.870Z,17.43
2022-09-15T06:53:16.108Z,17.46
2022-09-15T06:55:45.375Z,17.55
2022-09-15T06:58:14.697Z,17.72
2022-09-15T07:00:47.014Z,17.83
2022-09-15T07:03:16.337Z,17.91
2022-09-15T07:05:47.459Z,17.94
2022-09-15T07:08:17.507Z,18.02
2022-09-15T07:10:47.556Z,18.08
2022-09-15T07:13:17.251Z,18.14
2022-09-15T07:15:56.886Z,18.29
2022-09-15T07:18:27.005Z,18.34
2022-09-15T07:21:05.012Z,18.34
2022-09-15T07:23:35.972Z,18.42
2022-09-15T07:26:15.177Z,18.45
2022-09-15T07:28:47.151Z,18.38
2022-09-15T07:31:19.571Z,18.35
2022-09-15T07:33:49.467Z,18.37
2022-09-15T07:36:19.496Z,18.36
2022-09-15T07:38:51.386Z,18.41
2022-09-15T07:41:32.050Z,18.44
2022-09-15T07:44:02.762Z,18.56
2022-09-15T07:46:34.191Z,18.69
2022-09-15T07:49:03.904Z,18.72
2022-09-15T07:51:33.799Z,18.72
2022-09-15T07:54:03.191Z,18.69
2022-09-15T07:56:32.435Z,18.71
2022-09-15T07:59:01.769Z,18.80
2022-09-15T08:01:31.144Z,18.93
2022-09-15T08:04:00.483Z,19.08
2022-09-15T08:06:30.175Z,19.17
2022-09-15T08:09:00.976Z,19.33
2022-09-15T08:11:31.629Z,19.39
2022-09-15T08:14:04.065Z,19.37
2022-09-15T08:16:33.619Z,19.13
2022-09-15T08:19:03.398Z,18.98
2022-09-15T08:21:32.765Z,18.90
2022-09-15T08:24:02.667Z,18.93
2022-09-15T08:26:32.619Z,18.93
2022-09-15T08:29:02.257Z,18.92
2022-09-15T08:31:31.613Z,18.99
2022-09-15T08:34:04.042Z,19.17
2022-09-15T08:36:33.266Z,19.32
2022-09-15T08:39:02.696Z,19.34
2022-09-15T08:41:36.491Z,19.31
2022-09-15T08:44:43.552Z,19.45
2022-09-15T08:47:34.954Z,19.47
2022-09-15T08:50:23.292Z,19.41
2022-09-15T08:52:59.211Z,19.30
2022-09-15T08:55:47.233Z,19.48
2022-09-15T08:58:25.439Z,19.67
2022-09-15T09:01:19.101Z,19.74
2022-09-15T09:03:57.985Z,19.76
2022-09-15T09:06:48.598Z,19.69
2022-09-15T09:09:22.149Z,19.76
2022-09-15T09:12:01.534Z,19.78
2022-09-15T09:15:03.985Z,19.78
2022-09-15T09:17:56.171Z,19.86
2022-09-15T09:20:48.413Z,19.89
2022-09-15T09:23:23.868Z,19.78
2022-09-15T09:25:53.974Z,19.66
2022-09-15T09:28:32.505Z,19.64
2022-09-15T09:31:08.390Z,19.54
2022-09-15T09:33:54.195Z,19.60
2022-09-15T09:36:23.837Z,19.76
2022-09-15T09:38:53.543Z,19.79
2022-09-15T09:41:35.496Z,19.78
2022-09-15T09:44:13.001Z,19.65
2022-09-15T09:46:42.370Z,19.55
2022-09-15T09:49:22.947Z,19.36
2022-09-15T09:51:59.818Z,19.32
2022-09-15T09:54:31.706Z,19.21
2022-09-15T09:57:25.668Z,19.09
2022-09-15T09:59:54.995Z,19.07
2022-09-15T10:02:31.342Z,19.12
2022-09-15T10:05:24.040Z,19.06
2022-09-15T10:07:53.500Z,19.10
2022-09-15T10:10:28.772Z,19.17
2022-09-15T10:12:58.783Z,19.31
2022-09-15T10:15:31.846Z,19.27
2022-09-15T10:18:01.326Z,19.27
2022-09-15T10:20:52.199Z,19.37
2022-09-15T10:23:21.655Z,19.40
2022-09-15T10:26:00.146Z,19.50
2022-09-15T10:28:30.993Z,19.53
2022-09-15T10:31:07.081Z,19.63
2022-09-15T10:33:39.314Z,19.81
2022-09-15T10:36:18.036Z,19.85
2022-09-15T10:39:09.149Z,19.93
2022-09-15T10:41:48.445Z,20.33
2022-09-15T10:44:39.227Z,20.98
2022-09-15T10:47:20.682Z,21.31
2022-09-15T10:50:30.042Z,21.12
2022-09-15T10:53:20.035Z,20.70
2022-09-15T10:55:55.425Z,20.41
2022-09-15T10:59:03.649Z,20.07
2022-09-15T11:01:32.859Z,19.74
2022-09-15T11:04:20.828Z,19.44
2022-09-15T11:07:13.437Z,18.98
2022-09-15T11:09:57.592Z,18.53
2022-09-15T11:12:56.563Z,18.28
2022-09-15T11:15:49.169Z,18.31
2022-09-15T11:18:35.166Z,18.48
2022-09-15T11:21:28.342Z,18.74
2022-09-15T11:24:08.279Z,19.03
2022-09-15T11:26:44.959Z,19.19
2022-09-15T11:29:30.292Z,19.23
2022-09-15T11:32:07.437Z,19.38
2022-09-15T11:34:49.806Z,19.58
2022-09-15T11:37:26.799Z,19.63
2022-09-15T11:40:09.754Z,19.64
2022-09-15T11:42:48.686Z,19.48
2022-09-15T11:45:43.344Z,19.43
2022-09-15T11:48:18.791Z,19.30
2022-09-15T11:50:50.810Z,19.19
2022-09-15T11:53:26.731Z,19.17
2022-09-15T11:56:01.634Z,19.17
2022-09-15T11:58:44.091Z,19.13
2022-09-15T12:01:13.323Z,19.19
2022-09-15T12:03:54.584Z,19.25
2022-09-15T12:06:43.310Z,19.30
2022-09-15T12:09:18.626Z,19.31
2022-09-15T12:11:51.038Z,19.42
2022-09-15T12:14:44.939Z,19.52
2022-09-15T12:17:27.988Z,19.85
2022-09-15T12:20:11.677Z,20.20
2022-09-15T12:22:45.559Z,20.52
2022-09-15T12:25:24.694Z,20.81
2022-09-15T12:28:26.820Z,21.17
2022-09-15T12:31:33.886Z,21.51
2022-09-15T12:34:06.333Z,21.67
2022-09-15T12:36:39.685Z,21.63
2022-09-15T12:39:28.892Z,21.65
2022-09-15T12:42:21.392Z,21.88
2022-09-15T12:44:55.782Z,21.96
2022-09-15T12:47:35.807Z,22.21
2022-09-15T12:50:11.306Z,22.35
2022-09-15T12:53:03.865Z,22.48
2022-09-15T12:55:39.052Z,22.59
2022-09-15T12:58:21.050Z,22.83
2022-09-15T13:01:14.296Z,23.09
2022-09-15T13:03:43.063Z,23.30
2022-09-15T13:06:20.927Z,23.29
2022-09-15T13:09:05.776Z,23.08
2022-09-15T13:11:39.246Z,23.12
2022-09-15T13:14:08.842Z,23.38
2022-09-15T13:16:49.535Z,23.44
2022-09-15T13:19:30.812Z,23.50
2022-09-15T13:22:09.187Z,23.25
2022-09-15T13:25:01.779Z,23.19
2022-09-15T13:27:40.500Z,23.10
2022-09-15T13:30:24.930Z,22.89
2022-09-15T13:40:05.863Z,22.27
2022-09-15T13:42:35.093Z,22.15
2022-09-15T13:45:30.654Z,21.99
2022-09-15T13:48:45.374Z,21.89
2022-09-15T13:51:25.121Z,21.72
2022-09-15T13:54:06.603Z,21.67
2022-09-15T13:56:44.299Z,21.63
2022-09-15T13:59:25.834Z,21.56
2022-09-15T14:01:56.912Z,21.49
2022-09-15T14:04:29.145Z,21.53
2022-09-15T14:07:01.093Z,21.51
2022-09-15T14:09:37.469Z,21.38
2022-09-15T14:12:18.257Z,21.31
2022-09-15T14:14:53.808Z,21.40
2022-09-15T14:17:32.049Z,21.46
2022-09-15T14:20:05.988Z,21.33
2022-09-15T14:22:37.244Z,21.33
2022-09-15T14:25:16.984Z,21.14
2022-09-15T14:27:49.696Z,21.04
2022-09-15T14:30:28.177Z,21.03
2022-09-15T14:33:01.298Z,20.99
2022-09-15T14:35:37.938Z,20.88
2022-09-15T14:38:07.488Z,20.89
2022-09-15T14:40:41.842Z,20.89
2022-09-15T14:43:35.642Z,20.85
2022-09-15T14:46:13.455Z,20.69
2022-09-15T14:48:42.763Z,20.58
2022-09-15T14:51:28.591Z,20.46
2022-09-15T14:54:03.150Z,20.45
2022-09-15T14:56:39.202Z,20.46
2022-09-15T14:59:17.208Z,20.49
2022-09-15T15:01:58.242Z,20.39
2022-09-15T15:04:42.159Z,20.39
2022-09-15T15:07:30.908Z,20.36
2022-09-15T15:10:21.493Z,20.29
2022-09-15T15:12:58.092Z,20.19
2022-09-15T15:15:27.918Z,20.14
2022-09-15T15:17:57.691Z,20.15
2022-09-15T15:20:30.403Z,20.20
2022-09-15T15:23:19.698Z,20.19
2022-09-15T15:25:49.722Z,20.14
2022-09-15T15:28:42.470Z,20.07
2022-09-15T15:31:19.153Z,20.06
2022-09-15T15:33:59.379Z,19.96
2022-09-15T15:36:31.250Z,19.89
2022-09-15T15:39:04.042Z,19.88
2022-09-15T15:41:37.741Z,19.88
2022-09-15T15:44:12.628Z,19.93
2022-09-15T15:46:58.500Z,19.90
2022-09-15T15:49:30.205Z,19.96
2022-09-15T15:52:01.822Z,19.92
2022-09-15T15:54:31.515Z,19.82
2022-09-15T15:57:22.285Z,19.74
2022-09-15T15:59:51.751Z,19.69
2022-09-15T16:02:21.049Z,19.63
2022-09-15T16:04:50.419Z,19.57
2022-09-15T16:07:22.976Z,19.46
2022-09-15T16:09:54.249Z,19.46
2022-09-15T16:12:23.754Z,19.39
2022-09-15T16:14:53.186Z,19.38
2022-09-15T16:17:22.501Z,19.23
2022-09-15T16:19:51.790Z,19.37
2022-09-15T16:22:23.404Z,19.36
2022-09-15T16:24:52.711Z,19.37
2022-09-15T16:27:22.039Z,19.39
2022-09-15T16:29:51.444Z,19.33
2022-09-15T16:32:23.646Z,19.26
2022-09-15T16:34:54.908Z,19.24
2022-09-15T16:37:24.460Z,19.17
2022-09-15T16:39:54.826Z,19.18
2022-09-15T16:42:24.161Z,19.16
2022-09-15T16:44:53.610Z,19.12
2022-09-15T16:47:22.890Z,19.10
2022-09-15T16:49:52.689Z,19.09
2022-09-15T16:52:21.997Z,19.07
2022-09-15T16:54:51.557Z,18.99
2022-09-15T16:57:20.844Z,19.07
2022-09-15T16:59:50.111Z,19.05
2022-09-15T17:02:19.477Z,19.00
2022-09-15T17:04:48.775Z,18.96
2022-09-15T17:07:18.405Z,18.97
2022-09-15T17:09:49.900Z,18.89
2022-09-15T17:12:19.308Z,18.87
2022-09-15T17:14:48.582Z,18.86
2022-09-15T17:17:27.934Z,18.82
2022-09-15T17:19:57.994Z,18.76
2022-09-15T17:22:27.235Z,18.75
2022-09-15T17:24:56.537Z,18.77
2022-09-15T17:27:25.850Z,18.64
2022-09-15T17:29:55.134Z,18.56
2022-09-15T17:32:24.384Z,18.51
2022-09-15T17:34:53.678Z,18.50
2022-09-15T17:37:22.935Z,18.54
2022-09-15T17:39:58.673Z,18.53
2022-09-15T17:42:28.284Z,18.45
2022-09-15T17:44:57.555Z,18.38
2022-09-15T17:47:26.864Z,18.27
2022-09-15T17:49:56.162Z,18.16
2022-09-15T17:52:25.740Z,18.07
2022-09-15T17:54:54.986Z,17.94
2022-09-15T17:57:26.123Z,17.85
2022-09-15T17:59:55.404Z,17.78
2022-09-15T18:02:24.712Z,17.71
2022-09-15T18:04:54.098Z,17.59
2022-09-15T18:07:23.505Z,17.51
2022-09-15T18:09:52.844Z,17.40
2022-09-15T18:12:22.301Z,17.31
2022-09-15T18:14:51.575Z,17.21
2022-09-15T18:17:20.820Z,17.19
2022-09-15T18:19:50.108Z,17.06
2022-09-15T18:22:19.416Z,17.01
2022-09-15T18:24:48.811Z,16.97
2022-09-15T18:27:18.220Z,16.90
2022-09-15T18:29:47.514Z,16.81
2022-09-15T18:32:16.852Z,16.73
2022-09-15T18:34:46.137Z,16.66
2022-09-15T18:37:15.405Z,16.63
2022-09-15T18:39:44.640Z,16.57
2022-09-15T18:42:16.906Z,16.52
2022-09-15T18:44:46.166Z,16.47
2022-09-15T18:47:15.414Z,16.42
2022-09-15T18:49:44.713Z,16.34
2022-09-15T18:52:14.515Z,16.30
2022-09-15T18:54:43.864Z,16.20
2022-09-15T18:57:13.450Z,16.15
2022-09-15T18:59:42.792Z,16.09
2022-09-15T19:02:14.529Z,16.03
2022-09-15T19:04:44.515Z,15.97
2022-09-15T19:07:14.642Z,15.90
2022-09-15T19:09:44.623Z,15.91
2022-09-15T19:12:16.791Z,15.90
2022-09-15T19:14:46.763Z,15.86
2022-09-15T19:17:16.191Z,15.86
2022-09-15T19:19:48.872Z,15.85
2022-09-15T19:22:18.311Z,15.80
2022-09-15T19:24:47.731Z,15.69
2022-09-15T19:27:17.468Z,15.71
2022-09-15T19:29:46.994Z,15.70
2022-09-15T19:32:18.150Z,15.71
2022-09-15T19:34:49.034Z,15.68
2022-09-15T19:37:21.157Z,15.72
2022-09-15T19:39:51.792Z,15.70
2022-09-15T19:42:21.264Z,15.68
2022-09-15T19:44:50.689Z,15.63
2022-09-15T19:47:20.171Z,15.63
2022-09-15T19:49:49.652Z,15.61
2022-09-15T19:52:18.992Z,15.59
2022-09-15T19:54:48.328Z,15.65
2022-09-15T19:57:18.160Z,15.69
2022-09-15T19:59:47.555Z,15.70
2022-09-15T20:02:16.915Z,15.75
2022-09-15T20:04:46.619Z,15.73
2022-09-15T20:07:15.944Z,15.77
2022-09-15T20:09:45.349Z,15.74
2022-09-15T20:12:14.778Z,15.73
2022-09-15T20:14:44.355Z,15.69
2022-09-15T20:17:14.101Z,15.72
2022-09-15T20:19:43.562Z,15.76
2022-09-15T20:22:13.254Z,15.72
2022-09-15T20:24:42.983Z,15.74
2022-09-15T20:27:12.314Z,15.67
2022-09-15T20:29:41.619Z,15.70
2022-09-15T20:32:11.021Z,15.68
2022-09-15T20:34:40.362Z,15.66
2022-09-15T20:37:09.832Z,15.65
2022-09-15T20:39:41.624Z,15.64
2022-09-15T20:42:10.911Z,15.63
2022-09-15T20:44:40.199Z,15.64
2022-09-15T20:47:09.767Z,15.61
2022-09-15T20:49:39.229Z,15.63
2022-09-15T20:52:08.541Z,15.58
2022-09-15T20:54:37.827Z,15.52
2022-09-15T20:57:07.275Z,15.51
2022-09-15T20:59:36.844Z,15.51
2022-09-15T21:02:08.274Z,15.47
2022-09-15T21:04:37.608Z,15.44
2022-09-15T21:07:07.454Z,15.38
2022-09-15T21:09:37.103Z,15.28
2022-09-15T21:12:06.515Z,15.32
2022-09-15T21:14:36.086Z,15.34
2022-09-15T21:17:05.368Z,15.31
2022-09-15T21:19:34.614Z,15.23
2022-09-15T21:22:03.952Z,15.17
2022-09-15T21:24:33.229Z,15.13
2022-09-15T21:27:14.983Z,15.12
2022-09-15T21:29:48.285Z,15.09
2022-09-15T21:32:17.631Z,15.11
2022-09-15T21:34:47.281Z,15.10
2022-09-15T21:37:17.543Z,15.07
2022-09-15T21:39:46.975Z,14.99
2022-09-15T21:42:16.338Z,14.91
2022-09-15T21:44:45.650Z,14.89
2022-09-15T21:47:14.876Z,14.86
2022-09-15T21:49:44.241Z,14.80
2022-09-15T21:52:17.075Z,14.74
2022-09-15T21:54:46.368Z,14.77
2022-09-15T21:57:15.968Z,14.54
2022-09-15T21:59:45.193Z,14.83
2022-09-15T22:02:15.586Z,14.81
2022-09-15T22:04:45.575Z,14.89
2022-09-15T22:07:15.255Z,14.90
2022-09-15T22:09:44.515Z,14.93
2022-09-15T22:12:13.829Z,14.97
2022-09-15T22:14:43.105Z,15.01
2022-09-15T22:17:12.365Z,15.02
2022-09-15T22:19:41.937Z,15.06
2022-09-15T22:22:12.051Z,15.10
2022-09-15T22:24:42.806Z,15.07
2022-09-15T22:27:12.097Z,15.04
2022-09-15T22:29:43.409Z,15.02
2022-09-15T22:32:12.704Z,15.01
2022-09-15T22:34:42.168Z,15.01
2022-09-15T22:37:13.477Z,15.06
2022-09-15T22:39:58.537Z,15.08
2022-09-15T22:42:28.923Z,15.10
2022-09-15T22:44:58.209Z,15.11
2022-09-15T22:47:27.447Z,15.10
2022-09-15T22:49:56.918Z,15.09
2022-09-15T22:52:26.316Z,15.03
2022-09-15T22:54:55.685Z,15.01
2022-09-15T22:57:25.131Z,14.91
2022-09-15T22:59:54.624Z,14.82
2022-09-15T23:02:23.969Z,14.76
2022-09-15T23:04:54.287Z,14.72
2022-09-15T23:07:23.551Z,14.69
2022-09-15T23:09:52.888Z,14.69
2022-09-15T23:12:22.463Z,14.60
2022-09-15T23:14:51.742Z,14.55
2022-09-15T23:17:21.064Z,14.54
2022-09-15T23:19:50.377Z,14.58
2022-09-15T23:22:19.645Z,14.60
2022-09-15T23:24:48.925Z,14.59
2022-09-15T23:27:18.241Z,14.66
2022-09-15T23:29:47.673Z,14.70
2022-09-15T23:32:17.175Z,14.71
2022-09-15T23:34:46.517Z,14.75
2022-09-15T23:37:15.891Z,14.76
2022-09-15T23:39:45.149Z,14.68
2022-09-15T23:42:18.738Z,14.64
2022-09-15T23:44:48.645Z,14.68
2022-09-15T23:47:18.049Z,14.70
2022-09-15T23:49:47.377Z,14.74
2022-09-15T23:52:16.681Z,14.76
2022-09-15T23:54:45.974Z,14.74
2022-09-15T23:57:15.213Z,14.72
2022-09-15T23:59:44.557Z,14.72
